sensor_id;sensor_type;location;lat;lon;timestamp;temperature;humidity
11836;DHT22;5977;51.972;7.640;2024-03-25T00:01:56;18.40;79.40
11836;DHT22;5977;51.972;7.640;2024-03-25T00:04:24;18.40;79.40
11836;DHT22;5977;51.972;7.640;2024-03-25T00:06:51;18.40;79.50
11836;DHT22;5977;51.972;7.640;2024-03-25T00:09:18;18.40;80.00
11836;DHT22;5977;51.972;7.640;2024-03-25T00:11:46;18.30;79.60
11836;DHT22;5977;51.972;7.640;2024-03-25T00:14:12;18.40;79.40
11836;DHT22;5977;51.972;7.640;2024-03-25T00:16:39;18.30;79.40
11836;DHT22;5977;51.972;7.640;2024-03-25T00:19:05;18.40;79.60
11836;DHT22;5977;51.972;7.640;2024-03-25T00:21:33;18.40;79.80
11836;DHT22;5977;51.972;7.640;2024-03-25T00:23:59;18.40;80.10
11836;DHT22;5977;51.972;7.640;2024-03-25T00:26:26;18.30;79.90
11836;DHT22;5977;51.972;7.640;2024-03-25T00:28:52;18.40;80.00
11836;DHT22;5977;51.972;7.640;2024-03-25T00:31:19;18.40;80.30
11836;DHT22;5977;51.972;7.640;2024-03-25T00:33:45;18.30;80.30
11836;DHT22;5977;51.972;7.640;2024-03-25T00:36:12;18.40;81.00
11836;DHT22;5977;51.972;7.640;2024-03-25T00:38:40;18.40;81.30
11836;DHT22;5977;51.972;7.640;2024-03-25T00:41:07;18.40;81.80
11836;DHT22;5977;51.972;7.640;2024-03-25T00:43:33;18.30;82.20
11836;DHT22;5977;51.972;7.640;2024-03-25T00:46:00;18.30;81.70
11836;DHT22;5977;51.972;7.640;2024-03-25T00:48:26;18.40;82.00
11836;DHT22;5977;51.972;7.640;2024-03-25T00:50:53;18.40;82.30
11836;DHT22;5977;51.972;7.640;2024-03-25T00:53:19;18.30;83.10
11836;DHT22;5977;51.972;7.640;2024-03-25T00:55:47;18.40;84.50
11836;DHT22;5977;51.972;7.640;2024-03-25T00:58:13;18.30;84.60
11836;DHT22;5977;51.972;7.640;2024-03-25T01:00:41;18.30;84.90
11836;DHT22;5977;51.972;7.640;2024-03-25T01:03:07;18.30;83.80
11836;DHT22;5977;51.972;7.640;2024-03-25T01:05:34;18.40;80.10
11836;DHT22;5977;51.972;7.640;2024-03-25T01:08:00;18.30;79.70
11836;DHT22;5977;51.972;7.640;2024-03-25T01:10:27;18.30;80.20
11836;DHT22;5977;51.972;7.640;2024-03-25T01:12:54;18.40;80.50
11836;DHT22;5977;51.972;7.640;2024-03-25T01:15:23;18.20;81.00
11836;DHT22;5977;51.972;7.640;2024-03-25T01:17:49;18.40;81.40
11836;DHT22;5977;51.972;7.640;2024-03-25T01:20:16;18.20;82.30
11836;DHT22;5977;51.972;7.640;2024-03-25T01:22:41;18.30;82.90
11836;DHT22;5977;51.972;7.640;2024-03-25T01:25:08;18.30;83.40
11836;DHT22;5977;51.972;7.640;2024-03-25T01:27:35;18.30;81.00
11836;DHT22;5977;51.972;7.640;2024-03-25T01:30:05;18.30;79.80
11836;DHT22;5977;51.972;7.640;2024-03-25T01:32:31;18.30;77.70
11836;DHT22;5977;51.972;7.640;2024-03-25T01:34:58;18.30;77.50
11836;DHT22;5977;51.972;7.640;2024-03-25T01:37:24;18.30;77.50
11836;DHT22;5977;51.972;7.640;2024-03-25T01:39:51;18.30;77.40
11836;DHT22;5977;51.972;7.640;2024-03-25T01:42:17;18.20;77.50
11836;DHT22;5977;51.972;7.640;2024-03-25T01:44:45;18.30;77.50
11836;DHT22;5977;51.972;7.640;2024-03-25T01:47:14;18.30;77.50
11836;DHT22;5977;51.972;7.640;2024-03-25T01:49:42;18.30;77.50
11836;DHT22;5977;51.972;7.640;2024-03-25T01:52:09;18.30;77.60
11836;DHT22;5977;51.972;7.640;2024-03-25T01:54:35;18.30;77.80
11836;DHT22;5977;51.972;7.640;2024-03-25T01:57:02;18.30;78.10
11836;DHT22;5977;51.972;7.640;2024-03-25T01:59:30;18.20;78.20
11836;DHT22;5977;51.972;7.640;2024-03-25T02:01:57;18.20;78.10
11836;DHT22;5977;51.972;7.640;2024-03-25T02:04:25;18.30;78.30
11836;DHT22;5977;51.972;7.640;2024-03-25T02:06:52;18.20;78.10
11836;DHT22;5977;51.972;7.640;2024-03-25T02:09:22;18.30;78.20
11836;DHT22;5977;51.972;7.640;2024-03-25T02:11:48;18.30;78.10
11836;DHT22;5977;51.972;7.640;2024-03-25T02:14:16;18.30;78.10
11836;DHT22;5977;51.972;7.640;2024-03-25T02:16:42;18.20;78.10
11836;DHT22;5977;51.972;7.640;2024-03-25T02:19:11;18.20;78.00
11836;DHT22;5977;51.972;7.640;2024-03-25T02:21:40;18.30;78.20
11836;DHT22;5977;51.972;7.640;2024-03-25T02:24:09;18.20;78.10
11836;DHT22;5977;51.972;7.640;2024-03-25T02:26:37;18.20;78.20
11836;DHT22;5977;51.972;7.640;2024-03-25T02:29:04;18.20;78.30
11836;DHT22;5977;51.972;7.640;2024-03-25T02:31:30;18.30;78.60
11836;DHT22;5977;51.972;7.640;2024-03-25T02:33:57;18.20;78.50
11836;DHT22;5977;51.972;7.640;2024-03-25T02:36:23;18.20;78.50
11836;DHT22;5977;51.972;7.640;2024-03-25T02:38:50;18.30;78.50
11836;DHT22;5977;51.972;7.640;2024-03-25T02:41:16;18.30;78.50
11836;DHT22;5977;51.972;7.640;2024-03-25T02:43:44;18.20;78.50
11836;DHT22;5977;51.972;7.640;2024-03-25T02:46:10;18.20;78.40
11836;DHT22;5977;51.972;7.640;2024-03-25T02:48:38;18.20;78.70
11836;DHT22;5977;51.972;7.640;2024-03-25T02:51:04;18.20;78.80
11836;DHT22;5977;51.972;7.640;2024-03-25T02:53:31;18.20;78.80
11836;DHT22;5977;51.972;7.640;2024-03-25T02:55:57;18.30;79.10
11836;DHT22;5977;51.972;7.640;2024-03-25T02:58:24;18.20;79.10
11836;DHT22;5977;51.972;7.640;2024-03-25T03:00:51;18.20;79.10
11836;DHT22;5977;51.972;7.640;2024-03-25T03:03:18;18.20;79.30
11836;DHT22;5977;51.972;7.640;2024-03-25T03:05:44;18.20;79.40
11836;DHT22;5977;51.972;7.640;2024-03-25T03:08:11;18.20;79.60
11836;DHT22;5977;51.972;7.640;2024-03-25T03:10:37;18.30;79.60
11836;DHT22;5977;51.972;7.640;2024-03-25T03:13:04;18.30;79.90
11836;DHT22;5977;51.972;7.640;2024-03-25T03:15:30;18.20;80.10
11836;DHT22;5977;51.972;7.640;2024-03-25T03:17:58;18.20;80.10
11836;DHT22;5977;51.972;7.640;2024-03-25T03:20:24;18.20;80.20
11836;DHT22;5977;51.972;7.640;2024-03-25T03:22:51;18.20;80.60
11836;DHT22;5977;51.972;7.640;2024-03-25T03:25:17;18.20;80.50
11836;DHT22;5977;51.972;7.640;2024-03-25T03:27:44;18.20;80.60
11836;DHT22;5977;51.972;7.640;2024-03-25T03:30:11;18.20;80.50
11836;DHT22;5977;51.972;7.640;2024-03-25T03:32:38;18.20;80.40
11836;DHT22;5977;51.972;7.640;2024-03-25T03:35:06;18.30;80.70
11836;DHT22;5977;51.972;7.640;2024-03-25T03:37:33;18.10;80.50
11836;DHT22;5977;51.972;7.640;2024-03-25T03:39:59;18.20;81.00
11836;DHT22;5977;51.972;7.640;2024-03-25T03:42:26;18.20;80.90
11836;DHT22;5977;51.972;7.640;2024-03-25T03:44:52;18.20;80.60
11836;DHT22;5977;51.972;7.640;2024-03-25T03:47:19;18.20;80.40
11836;DHT22;5977;51.972;7.640;2024-03-25T03:49:45;18.20;80.60
11836;DHT22;5977;51.972;7.640;2024-03-25T03:52:13;18.20;80.60
11836;DHT22;5977;51.972;7.640;2024-03-25T03:54:39;18.20;80.60
11836;DHT22;5977;51.972;7.640;2024-03-25T03:57:06;18.20;81.00
11836;DHT22;5977;51.972;7.640;2024-03-25T03:59:32;18.20;81.90
11836;DHT22;5977;51.972;7.640;2024-03-25T04:01:59;18.20;81.40
11836;DHT22;5977;51.972;7.640;2024-03-25T04:04:26;18.20;82.00
11836;DHT22;5977;51.972;7.640;2024-03-25T04:06:53;18.20;82.00
11836;DHT22;5977;51.972;7.640;2024-03-25T04:09:20;18.20;82.40
11836;DHT22;5977;51.972;7.640;2024-03-25T04:11:49;18.10;82.50
11836;DHT22;5977;51.972;7.640;2024-03-25T04:14:15;18.20;82.60
11836;DHT22;5977;51.972;7.640;2024-03-25T04:16:42;18.10;82.90
11836;DHT22;5977;51.972;7.640;2024-03-25T04:19:08;18.20;77.40
11836;DHT22;5977;51.972;7.640;2024-03-25T04:21:35;18.10;77.20
11836;DHT22;5977;51.972;7.640;2024-03-25T04:24:01;18.20;77.10
11836;DHT22;5977;51.972;7.640;2024-03-25T04:26:29;18.10;76.90
11836;DHT22;5977;51.972;7.640;2024-03-25T04:28:55;18.10;76.80
11836;DHT22;5977;51.972;7.640;2024-03-25T04:31:22;18.10;76.80
11836;DHT22;5977;51.972;7.640;2024-03-25T04:33:48;18.10;76.80
11836;DHT22;5977;51.972;7.640;2024-03-25T04:36:15;18.10;76.70
11836;DHT22;5977;51.972;7.640;2024-03-25T04:38:41;18.10;76.80
11836;DHT22;5977;51.972;7.640;2024-03-25T04:41:07;18.10;76.90
11836;DHT22;5977;51.972;7.640;2024-03-25T04:43:35;18.10;76.90
11836;DHT22;5977;51.972;7.640;2024-03-25T04:46:01;18.10;77.00
11836;DHT22;5977;51.972;7.640;2024-03-25T04:48:27;18.10;77.10
11836;DHT22;5977;51.972;7.640;2024-03-25T04:50:53;18.10;77.10
11836;DHT22;5977;51.972;7.640;2024-03-25T04:53:19;18.10;77.20
11836;DHT22;5977;51.972;7.640;2024-03-25T04:55:45;18.10;77.10
11836;DHT22;5977;51.972;7.640;2024-03-25T04:58:11;18.10;77.20
11836;DHT22;5977;51.972;7.640;2024-03-25T05:00:39;18.10;77.20
11836;DHT22;5977;51.972;7.640;2024-03-25T05:03:05;18.10;77.90
11836;DHT22;5977;51.972;7.640;2024-03-25T05:05:31;18.10;77.20
11836;DHT22;5977;51.972;7.640;2024-03-25T05:07:57;18.10;77.20
11836;DHT22;5977;51.972;7.640;2024-03-25T05:10:23;18.10;77.20
11836;DHT22;5977;51.972;7.640;2024-03-25T05:12:49;18.10;77.30
11836;DHT22;5977;51.972;7.640;2024-03-25T05:15:15;18.10;77.30
11836;DHT22;5977;51.972;7.640;2024-03-25T05:17:43;18.10;77.30
11836;DHT22;5977;51.972;7.640;2024-03-25T05:20:10;18.10;77.30
11836;DHT22;5977;51.972;7.640;2024-03-25T05:22:36;18.10;77.40
11836;DHT22;5977;51.972;7.640;2024-03-25T05:25:02;18.10;77.40
11836;DHT22;5977;51.972;7.640;2024-03-25T05:27:28;18.10;77.30
11836;DHT22;5977;51.972;7.640;2024-03-25T05:29:54;18.10;77.40
11836;DHT22;5977;51.972;7.640;2024-03-25T05:32:21;18.10;77.40
11836;DHT22;5977;51.972;7.640;2024-03-25T05:34:48;18.10;77.30
11836;DHT22;5977;51.972;7.640;2024-03-25T05:37:14;18.10;77.40
11836;DHT22;5977;51.972;7.640;2024-03-25T05:39:40;18.10;77.40
11836;DHT22;5977;51.972;7.640;2024-03-25T05:42:06;18.10;77.40
11836;DHT22;5977;51.972;7.640;2024-03-25T05:44:33;18.10;77.40
11836;DHT22;5977;51.972;7.640;2024-03-25T05:46:59;18.10;77.40
11836;DHT22;5977;51.972;7.640;2024-03-25T05:49:25;18.10;77.30
11836;DHT22;5977;51.972;7.640;2024-03-25T05:51:53;18.10;77.40
11836;DHT22;5977;51.972;7.640;2024-03-25T05:54:19;18.10;77.30
11836;DHT22;5977;51.972;7.640;2024-03-25T05:56:45;18.10;77.30
11836;DHT22;5977;51.972;7.640;2024-03-25T05:59:11;18.10;77.20
11836;DHT22;5977;51.972;7.640;2024-03-25T06:01:37;18.10;77.30
11836;DHT22;5977;51.972;7.640;2024-03-25T06:04:03;18.10;76.60
11836;DHT22;5977;51.972;7.640;2024-03-25T06:06:29;18.10;77.20
11836;DHT22;5977;51.972;7.640;2024-03-25T06:08:57;18.10;77.20
11836;DHT22;5977;51.972;7.640;2024-03-25T06:11:23;18.10;77.20
11836;DHT22;5977;51.972;7.640;2024-03-25T06:13:49;18.10;77.10
11836;DHT22;5977;51.972;7.640;2024-03-25T06:16:15;18.10;77.10
11836;DHT22;5977;51.972;7.640;2024-03-25T06:18:41;18.10;77.10
11836;DHT22;5977;51.972;7.640;2024-03-25T06:21:07;18.10;77.80
11836;DHT22;5977;51.972;7.640;2024-03-25T06:23:33;18.10;77.10
11836;DHT22;5977;51.972;7.640;2024-03-25T06:26:01;18.10;77.10
11836;DHT22;5977;51.972;7.640;2024-03-25T06:28:27;18.10;77.10
11836;DHT22;5977;51.972;7.640;2024-03-25T06:30:53;18.10;77.10
11836;DHT22;5977;51.972;7.640;2024-03-25T06:33:37;18.10;77.10
11836;DHT22;5977;51.972;7.640;2024-03-25T06:36:22;18.10;77.00
11836;DHT22;5977;51.972;7.640;2024-03-25T06:38:48;18.10;76.90
11836;DHT22;5977;51.972;7.640;2024-03-25T06:41:15;18.10;76.90
11836;DHT22;5977;51.972;7.640;2024-03-25T06:43:41;18.10;77.00
11836;DHT22;5977;51.972;7.640;2024-03-25T06:46:08;18.10;76.90
11836;DHT22;5977;51.972;7.640;2024-03-25T06:48:34;18.10;76.90
11836;DHT22;5977;51.972;7.640;2024-03-25T06:51:01;18.10;76.90
11836;DHT22;5977;51.972;7.640;2024-03-25T06:53:28;18.10;76.90
11836;DHT22;5977;51.972;7.640;2024-03-25T06:55:55;18.10;76.90
11836;DHT22;5977;51.972;7.640;2024-03-25T06:58:23;18.10;76.80
11836;DHT22;5977;51.972;7.640;2024-03-25T07:00:50;18.10;76.80
11836;DHT22;5977;51.972;7.640;2024-03-25T07:03:16;18.10;76.70
11836;DHT22;5977;51.972;7.640;2024-03-25T07:05:44;18.10;76.60
11836;DHT22;5977;51.972;7.640;2024-03-25T07:08:11;18.20;76.50
11836;DHT22;5977;51.972;7.640;2024-03-25T07:10:37;18.20;76.50
11836;DHT22;5977;51.972;7.640;2024-03-25T07:13:03;18.20;76.30
11836;DHT22;5977;51.972;7.640;2024-03-25T07:15:31;18.30;76.30
11836;DHT22;5977;51.972;7.640;2024-03-25T07:17:57;18.30;76.20
11836;DHT22;5977;51.972;7.640;2024-03-25T07:20:23;18.30;76.10
11836;DHT22;5977;51.972;7.640;2024-03-25T07:22:49;18.30;76.00
11836;DHT22;5977;51.972;7.640;2024-03-25T07:25:15;18.40;76.00
11836;DHT22;5977;51.972;7.640;2024-03-25T07:27:41;18.40;75.80
11836;DHT22;5977;51.972;7.640;2024-03-25T07:30:08;18.40;75.70
11836;DHT22;5977;51.972;7.640;2024-03-25T07:32:35;18.40;75.70
11836;DHT22;5977;51.972;7.640;2024-03-25T07:35:02;18.40;75.80
11836;DHT22;5977;51.972;7.640;2024-03-25T07:37:28;18.40;75.90
11836;DHT22;5977;51.972;7.640;2024-03-25T07:39:54;18.40;76.00
11836;DHT22;5977;51.972;7.640;2024-03-25T07:42:20;18.40;76.00
11836;DHT22;5977;51.972;7.640;2024-03-25T07:44:46;18.30;76.10
11836;DHT22;5977;51.972;7.640;2024-03-25T07:47:13;18.40;76.10
11836;DHT22;5977;51.972;7.640;2024-03-25T07:49:40;18.40;76.00
11836;DHT22;5977;51.972;7.640;2024-03-25T07:52:07;18.40;76.00
11836;DHT22;5977;51.972;7.640;2024-03-25T07:54:33;18.40;76.00
11836;DHT22;5977;51.972;7.640;2024-03-25T07:56:59;18.40;75.90
11836;DHT22;5977;51.972;7.640;2024-03-25T07:59:25;18.40;75.90
11836;DHT22;5977;51.972;7.640;2024-03-25T08:01:51;18.40;76.00
11836;DHT22;5977;51.972;7.640;2024-03-25T08:04:17;18.40;76.00
11836;DHT22;5977;51.972;7.640;2024-03-25T08:06:45;18.40;76.00
11836;DHT22;5977;51.972;7.640;2024-03-25T08:09:11;18.40;76.10
11836;DHT22;5977;51.972;7.640;2024-03-25T08:11:37;18.40;76.20
11836;DHT22;5977;51.972;7.640;2024-03-25T08:14:04;18.40;76.20
11836;DHT22;5977;51.972;7.640;2024-03-25T08:16:30;18.50;76.10
11836;DHT22;5977;51.972;7.640;2024-03-25T08:18:56;18.50;76.10
11836;DHT22;5977;51.972;7.640;2024-03-25T08:21:23;18.60;76.20
11836;DHT22;5977;51.972;7.640;2024-03-25T08:23:50;18.70;77.30
11836;DHT22;5977;51.972;7.640;2024-03-25T08:26:17;18.70;78.30
11836;DHT22;5977;51.972;7.640;2024-03-25T08:28:43;18.90;79.70
11836;DHT22;5977;51.972;7.640;2024-03-25T08:31:09;18.90;81.40
11836;DHT22;5977;51.972;7.640;2024-03-25T08:33:35;19.00;82.20
11836;DHT22;5977;51.972;7.640;2024-03-25T08:36:02;19.10;76.10
11836;DHT22;5977;51.972;7.640;2024-03-25T08:38:28;19.30;83.00
11836;DHT22;5977;51.972;7.640;2024-03-25T08:43:23;19.90;71.50
11836;DHT22;5977;51.972;7.640;2024-03-25T08:45:49;20.30;71.40
11836;DHT22;5977;51.972;7.640;2024-03-25T08:48:15;20.80;70.40
11836;DHT22;5977;51.972;7.640;2024-03-25T08:50:41;21.00;69.40
11836;DHT22;5977;51.972;7.640;2024-03-25T08:53:07;21.30;68.70
11836;DHT22;5977;51.972;7.640;2024-03-25T08:55:33;21.60;68.00
11836;DHT22;5977;51.972;7.640;2024-03-25T08:58:00;21.60;67.10
11836;DHT22;5977;51.972;7.640;2024-03-25T09:00:27;21.30;67.10
11836;DHT22;5977;51.972;7.640;2024-03-25T09:02:53;21.30;67.60
11836;DHT22;5977;51.972;7.640;2024-03-25T09:05:20;21.40;67.00
11836;DHT22;5977;51.972;7.640;2024-03-25T09:07:46;21.50;66.80
11836;DHT22;5977;51.972;7.640;2024-03-25T09:10:15;22.00;65.60
11836;DHT22;5977;51.972;7.640;2024-03-25T09:13:00;21.70;65.50
11836;DHT22;5977;51.972;7.640;2024-03-25T09:15:27;21.50;66.10
11836;DHT22;5977;51.972;7.640;2024-03-25T09:17:53;21.40;66.40
11836;DHT22;5977;51.972;7.640;2024-03-25T09:20:19;21.20;66.90
11836;DHT22;5977;51.972;7.640;2024-03-25T09:22:45;21.10;67.10
11836;DHT22;5977;51.972;7.640;2024-03-25T09:25:11;21.00;67.40
11836;DHT22;5977;51.972;7.640;2024-03-25T09:27:37;20.80;67.70
11836;DHT22;5977;51.972;7.640;2024-03-25T09:30:06;20.60;68.10
11836;DHT22;5977;51.972;7.640;2024-03-25T09:32:32;20.40;68.60
11836;DHT22;5977;51.972;7.640;2024-03-25T09:34:59;20.50;68.80
11836;DHT22;5977;51.972;7.640;2024-03-25T09:37:25;20.30;69.00
11836;DHT22;5977;51.972;7.640;2024-03-25T09:39:52;20.10;69.40
11836;DHT22;5977;51.972;7.640;2024-03-25T09:42:22;20.00;69.90
11836;DHT22;5977;51.972;7.640;2024-03-25T09:44:50;19.80;70.30
11836;DHT22;5977;51.972;7.640;2024-03-25T09:47:19;19.70;70.90
11836;DHT22;5977;51.972;7.640;2024-03-25T09:49:45;19.60;71.20
11836;DHT22;5977;51.972;7.640;2024-03-25T09:52:12;19.60;71.50
11836;DHT22;5977;51.972;7.640;2024-03-25T09:54:38;19.50;71.70
11836;DHT22;5977;51.972;7.640;2024-03-25T09:57:05;19.60;71.80
11836;DHT22;5977;51.972;7.640;2024-03-25T09:59:31;20.00;71.10
11836;DHT22;5977;51.972;7.640;2024-03-25T10:01:59;19.90;70.40
11836;DHT22;5977;51.972;7.640;2024-03-25T10:04:28;19.70;70.80
11836;DHT22;5977;51.972;7.640;2024-03-25T10:06:54;19.60;71.20
11836;DHT22;5977;51.972;7.640;2024-03-25T10:09:21;19.40;71.60
11836;DHT22;5977;51.972;7.640;2024-03-25T10:11:48;19.40;71.30
11836;DHT22;5977;51.972;7.640;2024-03-25T10:14:15;19.20;70.40
11836;DHT22;5977;51.972;7.640;2024-03-25T10:16:41;19.20;70.50
11836;DHT22;5977;51.972;7.640;2024-03-25T10:19:08;19.10;70.00
11836;DHT22;5977;51.972;7.640;2024-03-25T10:21:36;19.10;69.60
11836;DHT22;5977;51.972;7.640;2024-03-25T10:24:04;19.50;69.10
11836;DHT22;5977;51.972;7.640;2024-03-25T10:26:32;19.90;67.90
11836;DHT22;5977;51.972;7.640;2024-03-25T10:29:02;19.80;66.70
11836;DHT22;5977;51.972;7.640;2024-03-25T10:31:29;19.60;66.60
11836;DHT22;5977;51.972;7.640;2024-03-25T10:33:57;19.50;67.10
11836;DHT22;5977;51.972;7.640;2024-03-25T10:36:24;19.30;67.50
11836;DHT22;5977;51.972;7.640;2024-03-25T10:38:54;19.30;67.90
11836;DHT22;5977;51.972;7.640;2024-03-25T10:41:21;19.20;68.00
11836;DHT22;5977;51.972;7.640;2024-03-25T10:43:48;19.30;68.00
11836;DHT22;5977;51.972;7.640;2024-03-25T10:46:18;19.40;67.90
11836;DHT22;5977;51.972;7.640;2024-03-25T10:48:54;19.40;67.50
11836;DHT22;5977;51.972;7.640;2024-03-25T10:51:21;19.50;67.00
11836;DHT22;5977;51.972;7.640;2024-03-25T10:53:52;19.50;66.90
11836;DHT22;5977;51.972;7.640;2024-03-25T10:56:21;19.80;66.70
11836;DHT22;5977;51.972;7.640;2024-03-25T10:58:48;19.60;66.20
11836;DHT22;5977;51.972;7.640;2024-03-25T11:01:16;19.40;66.70
11836;DHT22;5977;51.972;7.640;2024-03-25T11:03:44;19.30;66.80
11836;DHT22;5977;51.972;7.640;2024-03-25T11:06:10;19.20;66.90
11836;DHT22;5977;51.972;7.640;2024-03-25T11:08:37;19.10;68.00
11836;DHT22;5977;51.972;7.640;2024-03-25T11:11:05;19.10;67.40
11836;DHT22;5977;51.972;7.640;2024-03-25T11:13:31;19.10;67.30
11836;DHT22;5977;51.972;7.640;2024-03-25T11:15:58;19.20;67.40
11836;DHT22;5977;51.972;7.640;2024-03-25T11:18:25;19.40;66.60
11836;DHT22;5977;51.972;7.640;2024-03-25T11:21:02;19.60;66.10
11836;DHT22;5977;51.972;7.640;2024-03-25T11:23:36;19.70;65.50
11836;DHT22;5977;51.972;7.640;2024-03-25T11:26:04;19.80;65.10
11836;DHT22;5977;51.972;7.640;2024-03-25T11:28:30;19.60;65.20
11836;DHT22;5977;51.972;7.640;2024-03-25T11:30:56;19.50;65.60
11836;DHT22;5977;51.972;7.640;2024-03-25T11:33:22;19.50;65.40
11836;DHT22;5977;51.972;7.640;2024-03-25T11:35:49;19.60;65.50
11836;DHT22;5977;51.972;7.640;2024-03-25T11:38:15;19.60;65.20
11836;DHT22;5977;51.972;7.640;2024-03-25T11:40:43;19.60;65.00
11836;DHT22;5977;51.972;7.640;2024-03-25T11:43:17;19.60;64.80
11836;DHT22;5977;51.972;7.640;2024-03-25T11:45:46;19.60;65.10
11836;DHT22;5977;51.972;7.640;2024-03-25T11:48:14;19.60;65.00
11836;DHT22;5977;51.972;7.640;2024-03-25T11:50:40;19.50;65.50
11836;DHT22;5977;51.972;7.640;2024-03-25T11:53:06;19.40;65.40
11836;DHT22;5977;51.972;7.640;2024-03-25T11:55:32;19.30;65.50
11836;DHT22;5977;51.972;7.640;2024-03-25T11:57:59;19.30;65.70
11836;DHT22;5977;51.972;7.640;2024-03-25T12:00:26;19.40;65.70
11836;DHT22;5977;51.972;7.640;2024-03-25T12:02:52;19.40;65.40
11836;DHT22;5977;51.972;7.640;2024-03-25T12:05:19;19.30;64.70
11836;DHT22;5977;51.972;7.640;2024-03-25T12:07:45;19.30;64.90
11836;DHT22;5977;51.972;7.640;2024-03-25T12:10:11;19.40;67.10
11836;DHT22;5977;51.972;7.640;2024-03-25T12:12:57;19.40;67.60
11836;DHT22;5977;51.972;7.640;2024-03-25T12:15:23;19.40;68.10
11836;DHT22;5977;51.972;7.640;2024-03-25T12:17:50;19.30;68.50
11836;DHT22;5977;51.972;7.640;2024-03-25T12:20:17;19.30;68.80
11836;DHT22;5977;51.972;7.640;2024-03-25T12:22:44;19.30;69.10
11836;DHT22;5977;51.972;7.640;2024-03-25T12:25:10;19.30;69.40
11836;DHT22;5977;51.972;7.640;2024-03-25T12:27:38;19.30;69.60
11836;DHT22;5977;51.972;7.640;2024-03-25T12:30:05;19.30;69.60
11836;DHT22;5977;51.972;7.640;2024-03-25T12:32:42;19.40;69.80
11836;DHT22;5977;51.972;7.640;2024-03-25T12:35:11;19.40;69.90
11836;DHT22;5977;51.972;7.640;2024-03-25T12:37:38;19.40;70.10
11836;DHT22;5977;51.972;7.640;2024-03-25T12:40:06;19.30;70.20
11836;DHT22;5977;51.972;7.640;2024-03-25T12:42:33;19.30;70.30
11836;DHT22;5977;51.972;7.640;2024-03-25T12:44:59;19.30;70.50
11836;DHT22;5977;51.972;7.640;2024-03-25T12:47:25;19.30;70.60
11836;DHT22;5977;51.972;7.640;2024-03-25T12:49:51;19.30;70.80
11836;DHT22;5977;51.972;7.640;2024-03-25T12:52:19;19.30;70.90
11836;DHT22;5977;51.972;7.640;2024-03-25T12:54:45;19.30;71.00
11836;DHT22;5977;51.972;7.640;2024-03-25T12:57:11;19.30;71.10
11836;DHT22;5977;51.972;7.640;2024-03-25T12:59:37;19.30;71.20
11836;DHT22;5977;51.972;7.640;2024-03-25T13:02:03;19.30;71.40
11836;DHT22;5977;51.972;7.640;2024-03-25T13:04:30;19.30;71.40
11836;DHT22;5977;51.972;7.640;2024-03-25T13:06:56;19.20;71.30
11836;DHT22;5977;51.972;7.640;2024-03-25T13:09:23;19.30;71.40
11836;DHT22;5977;51.972;7.640;2024-03-25T13:11:49;19.30;71.40
11836;DHT22;5977;51.972;7.640;2024-03-25T13:14:15;19.30;71.40
11836;DHT22;5977;51.972;7.640;2024-03-25T13:16:41;19.30;71.40
11836;DHT22;5977;51.972;7.640;2024-03-25T13:19:07;19.30;71.40
11836;DHT22;5977;51.972;7.640;2024-03-25T13:21:34;19.30;71.40
11836;DHT22;5977;51.972;7.640;2024-03-25T13:24:00;19.40;71.40
11836;DHT22;5977;51.972;7.640;2024-03-25T13:26:27;19.40;71.40
11836;DHT22;5977;51.972;7.640;2024-03-25T13:28:53;19.40;71.40
11836;DHT22;5977;51.972;7.640;2024-03-25T13:31:19;19.40;72.20
11836;DHT22;5977;51.972;7.640;2024-03-25T13:33:45;19.30;71.50
11836;DHT22;5977;51.972;7.640;2024-03-25T13:36:11;19.30;71.60
11836;DHT22;5977;51.972;7.640;2024-03-25T13:38:38;19.30;71.70
11836;DHT22;5977;51.972;7.640;2024-03-25T13:41:04;19.30;71.80
11836;DHT22;5977;51.972;7.640;2024-03-25T13:43:32;19.30;72.00
11836;DHT22;5977;51.972;7.640;2024-03-25T13:45:58;19.20;72.30
11836;DHT22;5977;51.972;7.640;2024-03-25T13:48:24;19.20;72.50
11836;DHT22;5977;51.972;7.640;2024-03-25T13:50:53;19.20;72.70
11836;DHT22;5977;51.972;7.640;2024-03-25T13:53:20;19.20;72.80
11836;DHT22;5977;51.972;7.640;2024-03-25T13:55:46;19.20;73.00
11836;DHT22;5977;51.972;7.640;2024-03-25T13:58:12;19.20;72.50
11836;DHT22;5977;51.972;7.640;2024-03-25T14:00:40;19.20;73.10
11836;DHT22;5977;51.972;7.640;2024-03-25T14:03:06;19.20;73.10
11836;DHT22;5977;51.972;7.640;2024-03-25T14:05:32;19.20;73.10
11836;DHT22;5977;51.972;7.640;2024-03-25T14:07:59;19.30;73.20
11836;DHT22;5977;51.972;7.640;2024-03-25T14:10:25;19.30;73.10
11836;DHT22;5977;51.972;7.640;2024-03-25T14:12:51;19.30;72.90
11836;DHT22;5977;51.972;7.640;2024-03-25T14:15:17;19.30;72.80
11836;DHT22;5977;51.972;7.640;2024-03-25T14:17:45;19.30;72.80
11836;DHT22;5977;51.972;7.640;2024-03-25T14:20:11;19.30;72.40
11836;DHT22;5977;51.972;7.640;2024-03-25T14:22:37;19.30;72.70
11836;DHT22;5977;51.972;7.640;2024-03-25T14:25:04;19.30;72.80
11836;DHT22;5977;51.972;7.640;2024-03-25T14:27:30;19.30;72.90
11836;DHT22;5977;51.972;7.640;2024-03-25T14:29:56;19.30;72.90
11836;DHT22;5977;51.972;7.640;2024-03-25T14:32:23;19.30;72.60
11836;DHT22;5977;51.972;7.640;2024-03-25T14:34:51;19.30;73.00
11836;DHT22;5977;51.972;7.640;2024-03-25T14:37:17;19.30;72.90
11836;DHT22;5977;51.972;7.640;2024-03-25T14:39:43;19.30;73.10
11836;DHT22;5977;51.972;7.640;2024-03-25T14:42:10;19.20;72.80
11836;DHT22;5977;51.972;7.640;2024-03-25T14:44:36;19.20;72.80
11836;DHT22;5977;51.972;7.640;2024-03-25T14:47:03;19.20;72.80
11836;DHT22;5977;51.972;7.640;2024-03-25T14:49:29;19.20;73.10
11836;DHT22;5977;51.972;7.640;2024-03-25T14:51:57;19.20;72.80
11836;DHT22;5977;51.972;7.640;2024-03-25T14:54:23;19.20;72.80
11836;DHT22;5977;51.972;7.640;2024-03-25T14:56:58;19.20;72.90
11836;DHT22;5977;51.972;7.640;2024-03-25T14:59:24;19.20;73.20
11836;DHT22;5977;51.972;7.640;2024-03-25T15:01:50;19.20;73.10
11836;DHT22;5977;51.972;7.640;2024-03-25T15:04:16;19.10;72.60
11836;DHT22;5977;51.972;7.640;2024-03-25T15:06:42;19.10;73.10
11836;DHT22;5977;51.972;7.640;2024-03-25T15:09:09;19.10;73.30
11836;DHT22;5977;51.972;7.640;2024-03-25T15:11:35;19.10;73.30
11836;DHT22;5977;51.972;7.640;2024-03-25T15:14:02;19.00;73.30
11836;DHT22;5977;51.972;7.640;2024-03-25T15:16:28;19.00;73.60
11836;DHT22;5977;51.972;7.640;2024-03-25T15:18:54;19.00;73.80
11836;DHT22;5977;51.972;7.640;2024-03-25T15:21:20;19.00;73.70
11836;DHT22;5977;51.972;7.640;2024-03-25T15:23:46;19.00;73.80
11836;DHT22;5977;51.972;7.640;2024-03-25T15:26:13;19.00;73.90
11836;DHT22;5977;51.972;7.640;2024-03-25T15:28:40;19.00;74.00
11836;DHT22;5977;51.972;7.640;2024-03-25T15:31:06;19.00;74.10
11836;DHT22;5977;51.972;7.640;2024-03-25T15:33:32;19.00;74.10
11836;DHT22;5977;51.972;7.640;2024-03-25T15:35:58;18.90;74.00
11836;DHT22;5977;51.972;7.640;2024-03-25T15:38:24;18.90;74.10
11836;DHT22;5977;51.972;7.640;2024-03-25T15:40:50;18.90;74.20
11836;DHT22;5977;51.972;7.640;2024-03-25T15:43:18;18.90;74.40
11836;DHT22;5977;51.972;7.640;2024-03-25T15:45:53;18.90;74.40